sensor_id;sensor_type;location;lat;lon;timestamp;temperature;humidity
3756;DHT22;1893;52.526;13.360;2023-06-04T00:00:44;13.40;1.00
3756;DHT22;1893;52.526;13.360;2023-06-04T00:03:10;13.40;1.00
3756;DHT22;1893;52.526;13.360;2023-06-04T00:05:36;13.40;1.00
3756;DHT22;1893;52.526;13.360;2023-06-04T00:08:01;13.20;1.00
3756;DHT22;1893;52.526;13.360;2023-06-04T00:10:27;13.20;1.00
3756;DHT22;1893;52.526;13.360;2023-06-04T00:12:53;13.30;1.00
3756;DHT22;1893;52.526;13.360;2023-06-04T00:15:18;13.20;1.00
3756;DHT22;1893;52.526;13.360;2023-06-04T00:17:44;13.10;1.00
3756;DHT22;1893;52.526;13.360;2023-06-04T00:20:10;13.10;1.00
3756;DHT22;1893;52.526;13.360;2023-06-04T00:22:36;13.10;1.00
3756;DHT22;1893;52.526;13.360;2023-06-04T00:25:02;13.10;1.00
3756;DHT22;1893;52.526;13.360;2023-06-04T00:27:28;13.10;1.00
3756;DHT22;1893;52.526;13.360;2023-06-04T00:29:54;13.00;1.00
3756;DHT22;1893;52.526;13.360;2023-06-04T00:32:20;12.90;1.00
3756;DHT22;1893;52.526;13.360;2023-06-04T00:34:53;12.90;1.00
3756;DHT22;1893;52.526;13.360;2023-06-04T00:37:19;12.90;1.00
3756;DHT22;1893;52.526;13.360;2023-06-04T00:39:45;12.90;1.00
3756;DHT22;1893;52.526;13.360;2023-06-04T00:42:11;12.90;1.00
3756;DHT22;1893;52.526;13.360;2023-06-04T00:44:36;12.80;1.00
3756;DHT22;1893;52.526;13.360;2023-06-04T00:47:02;12.80;1.00
3756;DHT22;1893;52.526;13.360;2023-06-04T00:49:28;12.70;1.00
3756;DHT22;1893;52.526;13.360;2023-06-04T00:51:54;12.60;1.00
3756;DHT22;1893;52.526;13.360;2023-06-04T00:54:20;12.60;1.00
3756;DHT22;1893;52.526;13.360;2023-06-04T00:56:46;12.50;1.00
3756;DHT22;1893;52.526;13.360;2023-06-04T00:59:12;12.50;1.00
3756;DHT22;1893;52.526;13.360;2023-06-04T01:02:06;12.40;1.00
3756;DHT22;1893;52.526;13.360;2023-06-04T01:04:46;12.50;1.00
3756;DHT22;1893;52.526;13.360;2023-06-04T01:07:14;12.50;1.00
3756;DHT22;1893;52.526;13.360;2023-06-04T01:09:41;12.30;1.00
3756;DHT22;1893;52.526;13.360;2023-06-04T01:12:07;12.30;1.00
3756;DHT22;1893;52.526;13.360;2023-06-04T01:14:33;12.10;1.00
3756;DHT22;1893;52.526;13.360;2023-06-04T01:25:41;11.90;1.00
3756;DHT22;1893;52.526;13.360;2023-06-04T01:28:10;11.90;1.00
3756;DHT22;1893;52.526;13.360;2023-06-04T01:30:38;11.90;1.00
3756;DHT22;1893;52.526;13.360;2023-06-04T01:33:18;11.80;1.00
3756;DHT22;1893;52.526;13.360;2023-06-04T01:35:44;11.80;1.00
3756;DHT22;1893;52.526;13.360;2023-06-04T01:38:10;11.80;1.00
3756;DHT22;1893;52.526;13.360;2023-06-04T01:40:36;11.70;1.00
3756;DHT22;1893;52.526;13.360;2023-06-04T01:43:02;11.70;1.00
3756;DHT22;1893;52.526;13.360;2023-06-04T01:45:28;11.70;1.00
3756;DHT22;1893;52.526;13.360;2023-06-04T01:47:55;11.60;1.00
3756;DHT22;1893;52.526;13.360;2023-06-04T01:50:21;11.80;1.00
3756;DHT22;1893;52.526;13.360;2023-06-04T01:52:47;11.80;1.00
3756;DHT22;1893;52.526;13.360;2023-06-04T01:55:14;11.70;1.00
3756;DHT22;1893;52.526;13.360;2023-06-04T01:57:44;11.70;1.00
3756;DHT22;1893;52.526;13.360;2023-06-04T02:00:10;11.80;1.00
3756;DHT22;1893;52.526;13.360;2023-06-04T02:02:37;11.70;1.00
3756;DHT22;1893;52.526;13.360;2023-06-04T02:05:04;11.50;1.00
3756;DHT22;1893;52.526;13.360;2023-06-04T02:07:39;11.50;1.00
3756;DHT22;1893;52.526;13.360;2023-06-04T02:10:09;11.40;1.00
3756;DHT22;1893;52.526;13.360;2023-06-04T02:12:37;11.20;1.00
3756;DHT22;1893;52.526;13.360;2023-06-04T02:15:03;11.10;1.00
3756;DHT22;1893;52.526;13.360;2023-06-04T02:17:29;11.10;1.00
3756;DHT22;1893;52.526;13.360;2023-06-04T02:19:58;11.00;1.00
3756;DHT22;1893;52.526;13.360;2023-06-04T02:22:24;10.90;1.00
3756;DHT22;1893;52.526;13.360;2023-06-04T02:24:50;11.00;1.00
3756;DHT22;1893;52.526;13.360;2023-06-04T02:27:16;11.10;1.00
3756;DHT22;1893;52.526;13.360;2023-06-04T02:29:42;11.10;1.00
3756;DHT22;1893;52.526;13.360;2023-06-04T02:32:08;11.20;1.00
3756;DHT22;1893;52.526;13.360;2023-06-04T02:34:34;11.20;1.00
3756;DHT22;1893;52.526;13.360;2023-06-04T02:37:00;11.20;1.00
3756;DHT22;1893;52.526;13.360;2023-06-04T02:39:26;11.00;1.00
3756;DHT22;1893;52.526;13.360;2023-06-04T02:41:52;10.90;1.00
3756;DHT22;1893;52.526;13.360;2023-06-04T02:44:18;11.00;1.00
3756;DHT22;1893;52.526;13.360;2023-06-04T02:46:44;10.90;1.00
3756;DHT22;1893;52.526;13.360;2023-06-04T02:49:10;10.90;1.00
3756;DHT22;1893;52.526;13.360;2023-06-04T02:51:40;10.90;1.00
3756;DHT22;1893;52.526;13.360;2023-06-04T02:54:06;10.80;1.00
3756;DHT22;1893;52.526;13.360;2023-06-04T02:56:31;10.80;1.00
3756;DHT22;1893;52.526;13.360;2023-06-04T02:58:57;10.70;1.00
3756;DHT22;1893;52.526;13.360;2023-06-04T03:01:23;10.80;1.00
3756;DHT22;1893;52.526;13.360;2023-06-04T03:03:50;10.60;1.00
3756;DHT22;1893;52.526;13.360;2023-06-04T03:06:17;10.60;1.00
3756;DHT22;1893;52.526;13.360;2023-06-04T03:08:43;10.60;1.00
3756;DHT22;1893;52.526;13.360;2023-06-04T03:11:09;10.60;1.00
3756;DHT22;1893;52.526;13.360;2023-06-04T03:13:35;10.70;1.00
3756;DHT22;1893;52.526;13.360;2023-06-04T03:16:01;10.90;1.00
3756;DHT22;1893;52.526;13.360;2023-06-04T03:18:28;10.80;1.00
3756;DHT22;1893;52.526;13.360;2023-06-04T03:20:54;10.80;1.00
3756;DHT22;1893;52.526;13.360;2023-06-04T03:23:20;10.80;1.00
3756;DHT22;1893;52.526;13.360;2023-06-04T03:25:46;10.80;1.00
3756;DHT22;1893;52.526;13.360;2023-06-04T03:28:12;10.70;1.00
3756;DHT22;1893;52.526;13.360;2023-06-04T03:30:37;10.70;1.00
3756;DHT22;1893;52.526;13.360;2023-06-04T03:33:03;10.50;1.00
3756;DHT22;1893;52.526;13.360;2023-06-04T03:35:29;10.40;1.00
3756;DHT22;1893;52.526;13.360;2023-06-04T03:37:54;10.50;1.00
3756;DHT22;1893;52.526;13.360;2023-06-04T03:40:20;10.70;3.70
3756;DHT22;1893;52.526;13.360;2023-06-04T03:42:46;10.90;2.40
3756;DHT22;1893;52.526;13.360;2023-06-04T03:45:11;10.70;10.70
3756;DHT22;1893;52.526;13.360;2023-06-04T03:47:38;10.60;19.10
3756;DHT22;1893;52.526;13.360;2023-06-04T03:50:05;10.60;44.80
3756;DHT22;1893;52.526;13.360;2023-06-04T03:52:31;10.60;48.70
3756;DHT22;1893;52.526;13.360;2023-06-04T03:54:57;10.70;52.20
3756;DHT22;1893;52.526;13.360;2023-06-04T03:57:22;10.90;52.40
3756;DHT22;1893;52.526;13.360;2023-06-04T03:59:48;11.00;41.00
3756;DHT22;1893;52.526;13.360;2023-06-04T04:02:14;10.90;53.00
3756;DHT22;1893;52.526;13.360;2023-06-04T04:04:40;11.00;63.10
3756;DHT22;1893;52.526;13.360;2023-06-04T04:07:05;11.00;60.80
3756;DHT22;1893;52.526;13.360;2023-06-04T04:09:31;11.20;64.00
3756;DHT22;1893;52.526;13.360;2023-06-04T04:11:57;11.20;57.80
3756;DHT22;1893;52.526;13.360;2023-06-04T04:14:22;11.30;52.40
3756;DHT22;1893;52.526;13.360;2023-06-04T04:16:48;11.40;51.80
3756;DHT22;1893;52.526;13.360;2023-06-04T04:19:14;11.50;45.60
3756;DHT22;1893;52.526;13.360;2023-06-04T04:21:39;11.60;43.20
3756;DHT22;1893;52.526;13.360;2023-06-04T04:24:05;11.60;26.70
3756;DHT22;1893;52.526;13.360;2023-06-04T04:26:32;11.70;28.00
3756;DHT22;1893;52.526;13.360;2023-06-04T04:28:58;11.80;27.70
3756;DHT22;1893;52.526;13.360;2023-06-04T04:31:26;11.80;23.50
3756;DHT22;1893;52.526;13.360;2023-06-04T04:33:54;11.90;15.90
3756;DHT22;1893;52.526;13.360;2023-06-04T04:36:20;11.90;6.90
3756;DHT22;1893;52.526;13.360;2023-06-04T04:38:46;12.00;10.90
3756;DHT22;1893;52.526;13.360;2023-06-04T04:41:11;12.10;9.70
3756;DHT22;1893;52.526;13.360;2023-06-04T04:43:37;12.10;7.80
3756;DHT22;1893;52.526;13.360;2023-06-04T04:46:05;12.20;8.80
3756;DHT22;1893;52.526;13.360;2023-06-04T04:48:32;12.30;6.00
3756;DHT22;1893;52.526;13.360;2023-06-04T04:50:57;12.30;1.00
3756;DHT22;1893;52.526;13.360;2023-06-04T04:53:23;12.40;1.00
3756;DHT22;1893;52.526;13.360;2023-06-04T04:55:49;12.40;1.00
3756;DHT22;1893;52.526;13.360;2023-06-04T04:58:15;12.60;1.00
3756;DHT22;1893;52.526;13.360;2023-06-04T05:00:41;12.70;1.00
3756;DHT22;1893;52.526;13.360;2023-06-04T05:03:07;12.80;1.00
3756;DHT22;1893;52.526;13.360;2023-06-04T05:05:33;12.80;1.00
3756;DHT22;1893;52.526;13.360;2023-06-04T05:07:58;12.90;1.00
3756;DHT22;1893;52.526;13.360;2023-06-04T05:10:24;13.00;1.00
3756;DHT22;1893;52.526;13.360;2023-06-04T05:12:56;13.10;1.00
3756;DHT22;1893;52.526;13.360;2023-06-04T05:15:22;13.30;1.00
3756;DHT22;1893;52.526;13.360;2023-06-04T05:17:48;13.30;1.00
3756;DHT22;1893;52.526;13.360;2023-06-04T05:20:14;13.40;1.00
3756;DHT22;1893;52.526;13.360;2023-06-04T05:22:41;13.60;1.00
3756;DHT22;1893;52.526;13.360;2023-06-04T05:25:08;13.70;1.00
3756;DHT22;1893;52.526;13.360;2023-06-04T05:27:35;13.70;1.00
3756;DHT22;1893;52.526;13.360;2023-06-04T05:30:01;13.80;1.00
3756;DHT22;1893;52.526;13.360;2023-06-04T05:32:28;14.00;1.00
3756;DHT22;1893;52.526;13.360;2023-06-04T05:34:56;14.10;1.00
3756;DHT22;1893;52.526;13.360;2023-06-04T05:37:23;14.20;1.00
3756;DHT22;1893;52.526;13.360;2023-06-04T05:39:53;14.20;1.00
3756;DHT22;1893;52.526;13.360;2023-06-04T05:42:18;14.40;1.00
3756;DHT22;1893;52.526;13.360;2023-06-04T05:44:45;14.50;1.00
3756;DHT22;1893;52.526;13.360;2023-06-04T05:47:11;14.60;1.00
3756;DHT22;1893;52.526;13.360;2023-06-04T05:49:36;14.90;1.00
3756;DHT22;1893;52.526;13.360;2023-06-04T05:52:02;14.80;1.00
3756;DHT22;1893;52.526;13.360;2023-06-04T05:54:28;15.00;1.00
3756;DHT22;1893;52.526;13.360;2023-06-04T05:56:54;15.10;1.00
3756;DHT22;1893;52.526;13.360;2023-06-04T05:59:20;15.30;1.00
3756;DHT22;1893;52.526;13.360;2023-06-04T06:01:46;15.50;1.00
3756;DHT22;1893;52.526;13.360;2023-06-04T06:04:13;15.70;1.00
3756;DHT22;1893;52.526;13.360;2023-06-04T06:06:39;15.90;1.00
3756;DHT22;1893;52.526;13.360;2023-06-04T06:09:04;16.00;1.00
3756;DHT22;1893;52.526;13.360;2023-06-04T06:11:31;16.10;1.00
3756;DHT22;1893;52.526;13.360;2023-06-04T06:13:56;16.20;1.00
3756;DHT22;1893;52.526;13.360;2023-06-04T06:16:22;16.30;1.00
3756;DHT22;1893;52.526;13.360;2023-06-04T06:18:48;16.50;1.00
3756;DHT22;1893;52.526;13.360;2023-06-04T06:21:13;16.60;1.00
3756;DHT22;1893;52.526;13.360;2023-06-04T06:23:39;16.80;1.00
3756;DHT22;1893;52.526;13.360;2023-06-04T06:26:05;16.80;1.00
3756;DHT22;1893;52.526;13.360;2023-06-04T06:28:33;16.90;1.00
3756;DHT22;1893;52.526;13.360;2023-06-04T06:30:59;17.10;1.00
3756;DHT22;1893;52.526;13.360;2023-06-04T06:33:25;17.20;1.00
3756;DHT22;1893;52.526;13.360;2023-06-04T06:35:51;17.30;1.00
3756;DHT22;1893;52.526;13.360;2023-06-04T06:38:17;17.40;1.00
3756;DHT22;1893;52.526;13.360;2023-06-04T06:40:42;17.50;1.00
3756;DHT22;1893;52.526;13.360;2023-06-04T06:43:08;17.50;1.00
3756;DHT22;1893;52.526;13.360;2023-06-04T06:45:35;17.60;1.00
3756;DHT22;1893;52.526;13.360;2023-06-04T06:48:01;17.70;1.00
3756;DHT22;1893;52.526;13.360;2023-06-04T06:50:27;17.90;1.00
3756;DHT22;1893;52.526;13.360;2023-06-04T06:52:52;17.90;1.00
3756;DHT22;1893;52.526;13.360;2023-06-04T06:55:18;18.00;1.00
3756;DHT22;1893;52.526;13.360;2023-06-04T06:57:44;18.00;1.00
3756;DHT22;1893;52.526;13.360;2023-06-04T07:00:10;18.10;1.00
3756;DHT22;1893;52.526;13.360;2023-06-04T07:02:36;18.20;1.00
3756;DHT22;1893;52.526;13.360;2023-06-04T07:05:02;18.30;1.00
3756;DHT22;1893;52.526;13.360;2023-06-04T07:07:27;18.20;1.00
3756;DHT22;1893;52.526;13.360;2023-06-04T07:09:53;18.30;1.00
3756;DHT22;1893;52.526;13.360;2023-06-04T07:12:19;18.40;1.00
3756;DHT22;1893;52.526;13.360;2023-06-04T07:14:44;18.50;1.00
3756;DHT22;1893;52.526;13.360;2023-06-04T07:17:10;18.60;1.00
3756;DHT22;1893;52.526;13.360;2023-06-04T07:19:36;18.60;1.00
3756;DHT22;1893;52.526;13.360;2023-06-04T07:22:01;18.10;1.00
3756;DHT22;1893;52.526;13.360;2023-06-04T07:24:27;18.40;1.00
3756;DHT22;1893;52.526;13.360;2023-06-04T07:26:53;18.70;1.00
3756;DHT22;1893;52.526;13.360;2023-06-04T07:29:19;19.00;1.00
3756;DHT22;1893;52.526;13.360;2023-06-04T07:31:44;19.20;1.00
3756;DHT22;1893;52.526;13.360;2023-06-04T07:34:10;19.20;1.00
3756;DHT22;1893;52.526;13.360;2023-06-04T07:36:36;19.50;1.00
3756;DHT22;1893;52.526;13.360;2023-06-04T07:39:02;19.40;1.00
3756;DHT22;1893;52.526;13.360;2023-06-04T07:41:30;19.50;1.00
3756;DHT22;1893;52.526;13.360;2023-06-04T07:43:56;19.80;1.00
3756;DHT22;1893;52.526;13.360;2023-06-04T07:46:21;20.20;1.00
3756;DHT22;1893;52.526;13.360;2023-06-04T07:48:47;20.30;1.00
3756;DHT22;1893;52.526;13.360;2023-06-04T07:51:13;20.50;1.00
3756;DHT22;1893;52.526;13.360;2023-06-04T07:53:39;20.60;1.00
3756;DHT22;1893;52.526;13.360;2023-06-04T07:56:05;20.80;1.00
3756;DHT22;1893;52.526;13.360;2023-06-04T07:58:31;20.80;1.00
3756;DHT22;1893;52.526;13.360;2023-06-04T08:00:57;20.80;1.00
3756;DHT22;1893;52.526;13.360;2023-06-04T08:03:23;20.80;1.00
3756;DHT22;1893;52.526;13.360;2023-06-04T08:05:49;20.60;1.00
3756;DHT22;1893;52.526;13.360;2023-06-04T08:08:15;20.60;1.00
3756;DHT22;1893;52.526;13.360;2023-06-04T08:10:40;20.70;1.00
3756;DHT22;1893;52.526;13.360;2023-06-04T08:13:06;20.70;1.00
3756;DHT22;1893;52.526;13.360;2023-06-04T08:15:32;20.70;1.00
3756;DHT22;1893;52.526;13.360;2023-06-04T08:17:57;20.60;1.00
3756;DHT22;1893;52.526;13.360;2023-06-04T08:20:23;20.70;1.00
3756;DHT22;1893;52.526;13.360;2023-06-04T08:22:49;20.80;1.00
3756;DHT22;1893;52.526;13.360;2023-06-04T08:25:15;20.70;1.00
3756;DHT22;1893;52.526;13.360;2023-06-04T08:27:41;20.80;1.00
3756;DHT22;1893;52.526;13.360;2023-06-04T08:30:08;20.70;1.00
3756;DHT22;1893;52.526;13.360;2023-06-04T08:32:34;20.80;1.00
3756;DHT22;1893;52.526;13.360;2023-06-04T08:35:00;20.80;1.00
3756;DHT22;1893;52.526;13.360;2023-06-04T08:37:26;20.90;1.00
3756;DHT22;1893;52.526;13.360;2023-06-04T08:39:51;20.40;1.00
3756;DHT22;1893;52.526;13.360;2023-06-04T08:42:31;20.70;1.00
3756;DHT22;1893;52.526;13.360;2023-06-04T08:44:59;20.70;1.00
3756;DHT22;1893;52.526;13.360;2023-06-04T08:47:25;20.80;1.00
3756;DHT22;1893;52.526;13.360;2023-06-04T08:49:57;20.80;1.00
3756;DHT22;1893;52.526;13.360;2023-06-04T08:52:24;21.10;1.00
3756;DHT22;1893;52.526;13.360;2023-06-04T08:54:51;21.00;1.00
3756;DHT22;1893;52.526;13.360;2023-06-04T08:57:20;21.20;1.00
3756;DHT22;1893;52.526;13.360;2023-06-04T08:59:47;21.50;1.00
3756;DHT22;1893;52.526;13.360;2023-06-04T09:02:14;21.70;1.00
3756;DHT22;1893;52.526;13.360;2023-06-04T09:04:40;21.90;1.00
3756;DHT22;1893;52.526;13.360;2023-06-04T09:07:06;21.90;1.00
3756;DHT22;1893;52.526;13.360;2023-06-04T09:09:37;21.20;1.00
3756;DHT22;1893;52.526;13.360;2023-06-04T09:12:07;20.90;1.00
3756;DHT22;1893;52.526;13.360;2023-06-04T09:14:34;21.10;1.00
3756;DHT22;1893;52.526;13.360;2023-06-04T09:17:00;21.30;1.00
3756;DHT22;1893;52.526;13.360;2023-06-04T09:19:25;21.40;1.00
3756;DHT22;1893;52.526;13.360;2023-06-04T09:21:58;21.40;1.00
3756;DHT22;1893;52.526;13.360;2023-06-04T09:24:25;21.70;1.00
3756;DHT22;1893;52.526;13.360;2023-06-04T09:26:51;21.70;1.00
3756;DHT22;1893;52.526;13.360;2023-06-04T09:29:18;21.70;1.00
3756;DHT22;1893;52.526;13.360;2023-06-04T09:31:47;21.80;1.00
3756;DHT22;1893;52.526;13.360;2023-06-04T09:34:30;21.70;1.00
3756;DHT22;1893;52.526;13.360;2023-06-04T09:36:56;21.90;1.00
3756;DHT22;1893;52.526;13.360;2023-06-04T09:39:22;21.60;1.00
3756;DHT22;1893;52.526;13.360;2023-06-04T09:41:59;22.10;1.00
3756;DHT22;1893;52.526;13.360;2023-06-04T09:44:26;22.40;1.00
3756;DHT22;1893;52.526;13.360;2023-06-04T09:46:56;22.70;1.00
3756;DHT22;1893;52.526;13.360;2023-06-04T09:49:22;22.70;1.00
3756;DHT22;1893;52.526;13.360;2023-06-04T09:51:48;23.10;1.00
3756;DHT22;1893;52.526;13.360;2023-06-04T09:54:14;24.00;1.00
3756;DHT22;1893;52.526;13.360;2023-06-04T09:56:40;24.60;1.00
3756;DHT22;1893;52.526;13.360;2023-06-04T09:59:08;24.60;1.00
3756;DHT22;1893;52.526;13.360;2023-06-04T10:01:38;25.30;1.00
3756;DHT22;1893;52.526;13.360;2023-06-04T10:04:07;26.00;1.00
3756;DHT22;1893;52.526;13.360;2023-06-04T10:06:34;26.60;1.00
3756;DHT22;1893;52.526;13.360;2023-06-04T10:09:06;26.80;1.00
3756;DHT22;1893;52.526;13.360;2023-06-04T10:11:38;27.00;1.00
3756;DHT22;1893;52.526;13.360;2023-06-04T10:16:42;27.80;1.00
3756;DHT22;1893;52.526;13.360;2023-06-04T10:19:09;26.40;1.00
3756;DHT22;1893;52.526;13.360;2023-06-04T10:21:35;26.60;1.00
3756;DHT22;1893;52.526;13.360;2023-06-04T10:24:03;27.50;1.00
3756;DHT22;1893;52.526;13.360;2023-06-04T10:26:29;27.00;1.00
3756;DHT22;1893;52.526;13.360;2023-06-04T10:28:57;27.60;1.00
3756;DHT22;1893;52.526;13.360;2023-06-04T10:31:23;28.40;1.00
3756;DHT22;1893;52.526;13.360;2023-06-04T10:33:54;28.60;1.00
3756;DHT22;1893;52.526;13.360;2023-06-04T10:36:21;28.30;1.00
3756;DHT22;1893;52.526;13.360;2023-06-04T10:38:54;27.40;1.00
3756;DHT22;1893;52.526;13.360;2023-06-04T10:41:21;27.40;1.00
3756;DHT22;1893;52.526;13.360;2023-06-04T10:43:52;27.70;1.00
3756;DHT22;1893;52.526;13.360;2023-06-04T10:46:25;28.00;1.00
3756;DHT22;1893;52.526;13.360;2023-06-04T10:48:53;28.90;1.00
3756;DHT22;1893;52.526;13.360;2023-06-04T10:51:30;29.00;1.00
3756;DHT22;1893;52.526;13.360;2023-06-04T10:53:57;28.70;1.00
3756;DHT22;1893;52.526;13.360;2023-06-04T10:56:30;27.00;1.00
3756;DHT22;1893;52.526;13.360;2023-06-04T10:58:58;27.30;1.00
3756;DHT22;1893;52.526;13.360;2023-06-04T11:01:27;27.00;1.00
3756;DHT22;1893;52.526;13.360;2023-06-04T11:03:57;27.80;1.00
3756;DHT22;1893;52.526;13.360;2023-06-04T11:06:23;28.90;1.00
3756;DHT22;1893;52.526;13.360;2023-06-04T11:09:04;29.00;1.00
3756;DHT22;1893;52.526;13.360;2023-06-04T11:11:33;28.30;1.00
3756;DHT22;1893;52.526;13.360;2023-06-04T11:14:08;27.90;1.00
3756;DHT22;1893;52.526;13.360;2023-06-04T11:16:34;28.30;1.00
3756;DHT22;1893;52.526;13.360;2023-06-04T11:19:00;28.60;1.00
3756;DHT22;1893;52.526;13.360;2023-06-04T11:21:27;28.50;1.00
3756;DHT22;1893;52.526;13.360;2023-06-04T11:23:59;28.70;1.00
3756;DHT22;1893;52.526;13.360;2023-06-04T11:26:36;28.10;1.00
3756;DHT22;1893;52.526;13.360;2023-06-04T11:29:06;28.10;1.00
3756;DHT22;1893;52.526;13.360;2023-06-04T11:31:52;27.80;1.00
3756;DHT22;1893;52.526;13.360;2023-06-04T11:34:28;27.70;1.00
3756;DHT22;1893;52.526;13.360;2023-06-04T11:36:54;27.60;1.00
3756;DHT22;1893;52.526;13.360;2023-06-04T11:39:21;27.70;1.00
3756;DHT22;1893;52.526;13.360;2023-06-04T11:41:47;26.90;1.00
3756;DHT22;1893;52.526;13.360;2023-06-04T11:44:14;25.80;1.00
3756;DHT22;1893;52.526;13.360;2023-06-04T11:46:41;25.20;1.00
3756;DHT22;1893;52.526;13.360;2023-06-04T11:49:12;24.90;1.00
3756;DHT22;1893;52.526;13.360;2023-06-04T11:51:48;24.60;1.00
3756;DHT22;1893;52.526;13.360;2023-06-04T11:54:18;24.90;1.00
3756;DHT22;1893;52.526;13.360;2023-06-04T11:56:44;24.90;1.00
3756;DHT22;1893;52.526;13.360;2023-06-04T11:59:14;25.00;1.00
3756;DHT22;1893;52.526;13.360;2023-06-04T12:01:44;25.00;1.00
3756;DHT22;1893;52.526;13.360;2023-06-04T12:04:18;24.90;1.00
3756;DHT22;1893;52.526;13.360;2023-06-04T12:06:53;25.10;1.00
3756;DHT22;1893;52.526;13.360;2023-06-04T12:09:21;25.10;1.00
3756;DHT22;1893;52.526;13.360;2023-06-04T12:11:47;24.80;1.00
3756;DHT22;1893;52.526;13.360;2023-06-04T12:14:16;24.80;1.00
3756;DHT22;1893;52.526;13.360;2023-06-04T12:17:14;24.90;1.00
3756;DHT22;1893;52.526;13.360;2023-06-04T12:19:51;24.70;1.00
3756;DHT22;1893;52.526;13.360;2023-06-04T12:22:17;24.20;1.00
3756;DHT22;1893;52.526;13.360;2023-06-04T12:24:50;24.10;1.00
3756;DHT22;1893;52.526;13.360;2023-06-04T12:27:18;24.10;1.00
3756;DHT22;1893;52.526;13.360;2023-06-04T12:29:58;24.30;1.00
3756;DHT22;1893;52.526;13.360;2023-06-04T12:32:24;24.70;1.00
3756;DHT22;1893;52.526;13.360;2023-06-04T12:34:50;24.70;1.00
3756;DHT22;1893;52.526;13.360;2023-06-04T12:37:15;24.50;1.00
3756;DHT22;1893;52.526;13.360;2023-06-04T12:39:42;24.10;1.00
3756;DHT22;1893;52.526;13.360;2023-06-04T12:42:08;24.40;1.00
3756;DHT22;1893;52.526;13.360;2023-06-04T12:44:41;24.50;1.00
3756;DHT22;1893;52.526;13.360;2023-06-04T12:47:07;24.40;1.00
3756;DHT22;1893;52.526;13.360;2023-06-04T12:49:32;24.60;1.00
3756;DHT22;1893;52.526;13.360;2023-06-04T12:51:58;24.30;1.00
3756;DHT22;1893;52.526;13.360;2023-06-04T12:54:24;24.50;1.00
3756;DHT22;1893;52.526;13.360;2023-06-04T12:56:50;24.40;1.00
3756;DHT22;1893;52.526;13.360;2023-06-04T12:59:16;24.20;1.00
3756;DHT22;1893;52.526;13.360;2023-06-04T13:01:42;24.20;1.00
3756;DHT22;1893;52.526;13.360;2023-06-04T13:04:08;24.30;1.00
3756;DHT22;1893;52.526;13.360;2023-06-04T13:06:34;24.40;1.00
3756;DHT22;1893;52.526;13.360;2023-06-04T13:09:01;24.60;1.00
3756;DHT22;1893;52.526;13.360;2023-06-04T13:11:28;24.70;1.00
3756;DHT22;1893;52.526;13.360;2023-06-04T13:13:54;24.50;1.00
3756;DHT22;1893;52.526;13.360;2023-06-04T13:16:19;24.80;1.00
3756;DHT22;1893;52.526;13.360;2023-06-04T13:18:45;24.80;1.00
3756;DHT22;1893;52.526;13.360;2023-06-04T13:21:11;24.90;1.00
3756;DHT22;1893;52.526;13.360;2023-06-04T13:23:36;24.40;1.00
3756;DHT22;1893;52.526;13.360;2023-06-04T13:26:02;24.10;1.00
3756;DHT22;1893;52.526;13.360;2023-06-04T13:28:28;24.20;1.00
3756;DHT22;1893;52.526;13.360;2023-06-04T13:30:53;24.40;1.00
3756;DHT22;1893;52.526;13.360;2023-06-04T13:33:19;24.30;1.00
3756;DHT22;1893;52.526;13.360;2023-06-04T13:35:46;24.80;1.00
3756;DHT22;1893;52.526;13.360;2023-06-04T13:38:12;24.60;1.00
3756;DHT22;1893;52.526;13.360;2023-06-04T13:40:38;24.00;1.00
3756;DHT22;1893;52.526;13.360;2023-06-04T13:43:07;23.90;1.00
3756;DHT22;1893;52.526;13.360;2023-06-04T13:45:34;23.70;1.00
3756;DHT22;1893;52.526;13.360;2023-06-04T13:47:59;23.80;1.00
3756;DHT22;1893;52.526;13.360;2023-06-04T13:50:30;23.80;1.00
3756;DHT22;1893;52.526;13.360;2023-06-04T13:52:56;24.10;1.00
3756;DHT22;1893;52.526;13.360;2023-06-04T13:55:22;24.20;1.00
3756;DHT22;1893;52.526;13.360;2023-06-04T13:57:47;24.00;1.00
3756;DHT22;1893;52.526;13.360;2023-06-04T14:00:13;24.00;1.00
3756;DHT22;1893;52.526;13.360;2023-06-04T14:02:42;24.20;1.00
3756;DHT22;1893;52.526;13.360;2023-06-04T14:05:08;24.30;1.00
3756;DHT22;1893;52.526;13.360;2023-06-04T14:07:34;24.70;1.00
3756;DHT22;1893;52.526;13.360;2023-06-04T14:10:00;24.90;1.00
3756;DHT22;1893;52.526;13.360;2023-06-04T14:12:26;24.50;1.00
3756;DHT22;1893;52.526;13.360;2023-06-04T14:14:51;24.20;1.00
3756;DHT22;1893;52.526;13.360;2023-06-04T14:17:17;23.80;1.00
3756;DHT22;1893;52.526;13.360;2023-06-04T14:19:43;23.70;1.00
3756;DHT22;1893;52.526;13.360;2023-06-04T14:22:10;23.80;1.00
3756;DHT22;1893;52.526;13.360;2023-06-04T14:24:36;23.90;1.00
3756;DHT22;1893;52.526;13.360;2023-06-04T14:27:02;24.20;1.00
3756;DHT22;1893;52.526;13.360;2023-06-04T14:29:27;24.40;1.00
3756;DHT22;1893;52.526;13.360;2023-06-04T14:31:53;24.40;1.00
3756;DHT22;1893;52.526;13.360;2023-06-04T14:34:19;24.40;1.00
3756;DHT22;1893;52.526;13.360;2023-06-04T14:36:46;24.10;1.00
3756;DHT22;1893;52.526;13.360;2023-06-04T14:39:12;24.10;1.00
3756;DHT22;1893;52.526;13.360;2023-06-04T14:41:37;24.10;1.00
3756;DHT22;1893;52.526;13.360;2023-06-04T14:44:03;24.20;1.00
3756;DHT22;1893;52.526;13.360;2023-06-04T14:46:28;24.00;1.00
3756;DHT22;1893;52.526;13.360;2023-06-04T14:48:55;24.00;1.00
3756;DHT22;1893;52.526;13.360;2023-06-04T14:51:21;24.00;1.00
3756;DHT22;1893;52.526;13.360;2023-06-04T14:53:49;24.10;1.00
3756;DHT22;1893;52.526;13.360;2023-06-04T14:56:17;23.80;1.00
3756;DHT22;1893;52.526;13.360;2023-06-04T14:58:43;23.90;1.00
3756;DHT22;1893;52.526;13.360;2023-06-04T15:01:09;24.10;1.00
3756;DHT22;1893;52.526;13.360;2023-06-04T15:03:37;24.20;1.00
3756;DHT22;1893;52.526;13.360;2023-06-04T15:06:03;24.10;1.00
3756;DHT22;1893;52.526;13.360;2023-06-04T15:08:29;24.20;1.00
3756;DHT22;1893;52.526;13.360;2023-06-04T15:10:54;24.20;1.00
3756;DHT22;1893;52.526;13.360;2023-06-04T15:13:20;24.10;1.00
3756;DHT22;1893;52.526;13.360;2023-06-04T15:15:46;24.10;1.00
3756;DHT22;1893;52.526;13.360;2023-06-04T15:18:11;24.00;1.00
3756;DHT22;1893;52.526;13.360;2023-06-04T15:20:37;24.00;1.00
3756;DHT22;1893;52.526;13.360;2023-06-04T15:23:03;23.70;1.00
3756;DHT22;1893;52.526;13.360;2023-06-04T15:25:28;23.50;1.00
3756;DHT22;1893;52.526;13.360;2023-06-04T15:27:54;23.60;1.00
3756;DHT22;1893;52.526;13.360;2023-06-04T15:30:19;23.40;1.00
3756;DHT22;1893;52.526;13.360;2023-06-04T15:32:46;23.30;1.00
3756;DHT22;1893;52.526;13.360;2023-06-04T15:35:11;23.40;1.00
3756;DHT22;1893;52.526;13.360;2023-06-04T15:37:37;23.50;1.00
3756;DHT22;1893;52.526;13.360;2023-06-04T15:40:04;23.50;1.00
3756;DHT22;1893;52.526;13.360;2023-06-04T15:42:32;23.60;1.00
3756;DHT22;1893;52.526;13.360;2023-06-04T15:44:58;23.70;1.00
3756;DHT22;1893;52.526;13.360;2023-06-04T15:47:24;23.60;1.00
3756;DHT22;1893;52.526;13.360;2023-06-04T15:49:49;23.40;1.00
3756;DHT22;1893;52.526;13.360;2023-06-04T15:52:15;23.40;1.00
3756;DHT22;1893;52.526;13.360;2023-06-04T15:54:41;23.50;1.00
3756;DHT22;1893;52.526;13.360;2023-06-04T15:57:07;23.60;1.00
3756;DHT22;1893;52.526;13.360;2023-06-04T15:59:32;23.50;1.00
3756;DHT22;1893;52.526;13.360;2023-06-04T16:01:59;23.60;1.00
3756;DHT22;1893;52.526;13.360;2023-06-04T16:04:25;23.20;1.00
3756;DHT22;1893;52.526;13.360;2023-06-04T16:06:51;23.20;1.00
3756;DHT22;1893;52.526;13.360;2023-06-04T16:09:16;23.30;1.00